Time;durP1;ratioP1;P1;durP2;ratioP2;P2;SDS_P1;SDS_P2;PMS_P1;PMS_P2;Temp;Humidity;BMP_temperature;BMP_pressure;BME280_temperature;BME280_humidity;BME280_pressure;Samples;Min_cycle;Max_cycle;Signal;HPM_P1;HPM_P2
2022/03/03 00:00:15;;;;;;;23.08;13.23;;;-1.10;99.90;;;;;;5030604;28;20049;-65
2022/03/03 00:02:43;;;;;;;28.58;13.40;;;-1.10;99.90;;;;;;5030397;28;20545;-65
2022/03/03 00:05:11;;;;;;;28.35;14.32;;;-1.10;99.90;;;;;;5029690;28;20489;-63
2022/03/03 00:07:39;;;;;;;27.83;13.90;;;-1.10;99.90;;;;;;5030235;28;20481;-65
2022/03/03 00:10:08;;;;;;;27.25;14.40;;;-1.20;99.90;;;;;;5036212;28;20045;-65
2022/03/03 00:12:36;;;;;;;29.75;13.70;;;-1.30;99.90;;;;;;5028071;28;20491;-65
2022/03/03 00:15:04;;;;;;;31.90;14.38;;;-1.30;99.90;;;;;;5033879;28;20388;-65
2022/03/03 00:17:32;;;;;;;26.05;13.85;;;-1.30;99.90;;;;;;5040625;28;20049;-64
2022/03/03 00:20:00;;;;;;;25.30;14.13;;;-1.30;99.90;;;;;;5029265;28;20641;-65
2022/03/03 00:22:27;;;;;;;27.27;13.25;;;-1.30;99.90;;;;;;5029922;28;20056;-64
2022/03/03 00:24:54;;;;;;;26.25;13.75;;;-1.30;99.90;;;;;;5043824;28;20339;-65
2022/03/03 00:27:22;;;;;;;27.33;14.05;;;-1.40;99.90;;;;;;5042653;28;20445;-64
2022/03/03 00:29:49;;;;;;;32.92;15.50;;;-1.50;99.90;;;;;;5029528;28;20037;-64
2022/03/03 00:32:16;;;;;;;30.13;14.75;;;-1.50;99.90;;;;;;5040327;28;20045;-62
2022/03/03 00:34:44;;;;;;;31.83;14.38;;;-1.50;99.90;;;;;;5043758;28;20136;-64
2022/03/03 00:37:12;;;;;;;27.98;13.93;;;-1.50;99.90;;;;;;5030458;28;20050;-64
2022/03/03 00:39:39;;;;;;;32.88;14.75;;;-1.50;99.90;;;;;;5030823;28;20063;-65
2022/03/03 00:42:07;;;;;;;26.25;13.52;;;-1.60;99.90;;;;;;5030107;28;20076;-64
2022/03/03 00:44:34;;;;;;;25.73;13.73;;;-1.60;99.90;;;;;;5030270;28;20475;-65
2022/03/03 00:47:02;;;;;;;26.95;13.50;;;-1.60;99.90;;;;;;5038776;28;20500;-65
2022/03/03 00:49:30;;;;;;;26.85;13.40;;;-1.60;99.90;;;;;;5029121;28;20045;-65
2022/03/03 00:51:57;;;;;;;25.63;12.93;;;-1.60;99.90;;;;;;5030076;28;20453;-65
2022/03/03 00:54:25;;;;;;;27.10;13.77;;;-1.60;99.90;;;;;;5030119;28;20037;-65
2022/03/03 00:56:52;;;;;;;27.52;13.98;;;-1.60;99.90;;;;;;5030249;28;20155;-65
2022/03/03 00:59:20;;;;;;;27.80;13.95;;;-1.60;99.90;;;;;;5031037;28;20049;-65
2022/03/03 01:01:47;;;;;;;32.55;14.50;;;-1.60;99.90;;;;;;5022498;28;20175;-65
2022/03/03 01:04:15;;;;;;;29.45;13.70;;;-1.60;99.90;;;;;;5035103;28;20092;-65
2022/03/03 01:06:43;;;;;;;28.95;13.63;;;-1.60;99.90;;;;;;5028912;28;20806;-65
2022/03/03 01:09:10;;;;;;;30.67;13.40;;;-1.60;99.90;;;;;;5025001;28;20053;-65
2022/03/03 01:11:37;;;;;;;27.60;14.15;;;-1.60;99.90;;;;;;5034188;28;20050;-65
2022/03/03 01:14:04;;;;;;;26.88;13.90;;;-1.60;99.90;;;;;;5034872;28;20140;-65
2022/03/03 01:16:32;;;;;;;26.33;13.05;;;-1.60;99.90;;;;;;5036026;28;20081;-64
2022/03/03 01:19:00;;;;;;;31.08;14.98;;;-1.60;99.90;;;;;;5034903;28;20568;-65
2022/03/03 01:21:32;;;;;;;32.78;14.50;;;-1.60;99.90;;;;;;5032788;28;20046;-65
2022/03/03 01:24:00;;;;;;;29.45;14.55;;;-1.60;99.90;;;;;;5033689;28;20499;-65
2022/03/03 01:26:27;;;;;;;28.55;13.98;;;-1.60;99.90;;;;;;5033845;28;20057;-65
2022/03/03 01:28:54;;;;;;;30.38;14.68;;;-1.70;99.90;;;;;;5032786;28;20480;-65
2022/03/03 01:31:21;;;;;;;31.70;15.25;;;-1.70;99.90;;;;;;5031838;28;20045;-65
2022/03/03 01:33:49;;;;;;;26.50;14.32;;;-1.70;99.90;;;;;;5031765;28;20037;-65
2022/03/03 01:36:16;;;;;;;31.17;13.75;;;-1.70;99.90;;;;;;5034363;28;20404;-65
2022/03/03 01:38:43;;;;;;;28.63;14.20;;;-1.70;99.90;;;;;;5032605;28;20500;-65
2022/03/03 01:41:10;;;;;;;26.52;13.35;;;-1.70;99.90;;;;;;5033063;28;20548;-65
2022/03/03 01:43:38;;;;;;;27.88;13.80;;;-1.70;99.90;;;;;;5044996;28;20033;-65
2022/03/03 01:46:06;;;;;;;26.42;13.88;;;-1.80;99.90;;;;;;5040686;28;20049;-65
2022/03/03 01:48:33;;;;;;;26.00;14.52;;;-1.80;99.90;;;;;;5041191;28;20042;-65
2022/03/03 01:51:00;;;;;;;30.38;14.45;;;-1.80;99.90;;;;;;5048273;28;20095;-65
2022/03/03 01:53:27;;;;;;;26.00;13.63;;;-1.80;99.90;;;;;;5050596;28;20579;-64
2022/03/03 01:55:55;;;;;;;25.92;13.68;;;-1.80;99.90;;;;;;5037921;28;20366;-65
2022/03/03 01:58:22;;;;;;;26.92;14.38;;;-1.70;99.90;;;;;;5038518;28;20052;-65
2022/03/03 02:00:51;;;;;;;29.48;13.98;;;-1.80;99.90;;;;;;5044784;28;20543;-64
2022/03/03 02:03:19;;;;;;;29.50;17.05;;;-1.80;99.90;;;;;;5029257;28;20059;-65
2022/03/03 02:05:47;;;;;;;27.55;14.60;;;-1.80;99.90;;;;;;5036956;28;20061;-65
2022/03/03 02:08:14;;;;;;;35.25;15.38;;;-1.80;99.90;;;;;;5032621;28;20037;-63
2022/03/03 02:10:41;;;;;;;25.55;14.07;;;-1.80;99.90;;;;;;5037345;28;20041;-65
2022/03/03 02:13:09;;;;;;;27.50;13.80;;;-1.80;99.90;;;;;;5040897;28;20488;-64
2022/03/03 02:15:36;;;;;;;26.10;13.10;;;-1.80;99.90;;;;;;5035538;28;20124;-65
2022/03/03 02:18:03;;;;;;;26.58;13.15;;;-1.80;99.90;;;;;;5032366;28;20067;-65
2022/03/03 02:20:31;;;;;;;24.17;13.27;;;-1.70;99.90;;;;;;5031182;28;20049;-65
2022/03/03 02:22:59;;;;;;;23.75;12.93;;;-1.70;99.90;;;;;;5040938;28;20479;-65
2022/03/03 02:25:26;;;;;;;28.00;13.98;;;-1.80;99.90;;;;;;5039576;28;20147;-64
2022/03/03 02:27:54;;;;;;;27.08;13.77;;;-1.80;99.90;;;;;;5033124;28;20041;-65
2022/03/03 02:30:22;;;;;;;25.02;13.30;;;-1.90;99.90;;;;;;5039859;28;20120;-65
2022/03/03 02:32:49;;;;;;;25.05;13.80;;;-2.00;99.90;;;;;;5036870;28;20049;-65
2022/03/03 02:35:16;;;;;;;28.92;14.40;;;-2.00;99.90;;;;;;5039181;28;20140;-64
2022/03/03 02:37:45;;;;;;;30.15;14.18;;;-2.00;99.90;;;;;;5035653;28;20056;-64
2022/03/03 02:40:21;;;;;;;26.75;13.68;;;-2.10;99.90;;;;;;5035525;28;20068;-64
2022/03/03 02:42:53;;;;;;;27.80;14.30;;;-2.20;99.90;;;;;;5022890;28;20419;-64
2022/03/03 02:45:21;;;;;;;24.30;14.40;;;-2.20;99.90;;;;;;5048721;28;20426;-64
2022/03/03 02:47:50;;;;;;;27.48;14.48;;;-2.20;99.90;;;;;;5036196;28;20494;-65
2022/03/03 02:50:20;;;;;;;30.98;13.98;;;-2.30;99.90;;;;;;5038059;28;20496;-64
2022/03/03 02:52:48;;;;;;;26.20;13.48;;;-2.30;99.90;;;;;;5046616;28;20037;-64
2022/03/03 02:55:16;;;;;;;26.90;13.35;;;-2.30;99.90;;;;;;5048109;28;20048;-63
2022/03/03 02:57:56;;;;;;;31.38;15.10;;;-2.40;99.90;;;;;;5032491;28;20052;-64
2022/03/03 03:00:26;;;;;;;33.47;14.85;;;-2.30;99.90;;;;;;5043008;28;20046;-65
2022/03/03 03:02:54;;;;;;;27.42;13.60;;;-2.40;99.90;;;;;;5045454;28;20120;-65
2022/03/03 03:05:22;;;;;;;26.52;14.15;;;-2.40;99.90;;;;;;5034985;28;20141;-65
2022/03/03 03:07:49;;;;;;;28.35;14.63;;;-2.30;99.90;;;;;;5030741;28;20049;-64
2022/03/03 03:10:17;;;;;;;29.73;14.50;;;-2.40;99.90;;;;;;5030069;28;20038;-64
2022/03/03 03:12:44;;;;;;;28.95;15.77;;;-2.40;99.90;;;;;;5028516;28;20080;-65
2022/03/03 03:15:12;;;;;;;29.95;13.73;;;-2.50;99.90;;;;;;5044749;28;20045;-64
2022/03/03 03:17:39;;;;;;;23.25;13.48;;;-2.50;99.90;;;;;;5043521;28;20040;-65
2022/03/03 03:20:07;;;;;;;27.55;13.95;;;-2.50;99.90;;;;;;5037589;28;20531;-65
2022/03/03 03:22:35;;;;;;;25.10;13.38;;;-2.50;99.90;;;;;;5049169;28;20056;-65
2022/03/03 03:25:05;;;;;;;24.05;12.55;;;-2.50;99.90;;;;;;5050064;28;20466;-64
2022/03/03 03:27:32;;;;;;;25.60;12.88;;;-2.50;99.90;;;;;;5050768;28;20392;-65
2022/03/03 03:30:00;;;;;;;24.73;13.27;;;-2.50;99.90;;;;;;5044751;28;20047;-63
2022/03/03 03:32:27;;;;;;;24.90;13.07;;;-2.60;99.90;;;;;;5043364;28;20054;-65
2022/03/03 03:34:55;;;;;;;22.88;12.43;;;-2.50;99.90;;;;;;5029728;28;20045;-65
2022/03/03 03:37:22;;;;;;;25.00;13.02;;;-2.60;99.90;;;;;;5027590;28;20050;-65
2022/03/03 03:39:49;;;;;;;28.27;12.73;;;-2.60;99.90;;;;;;5033079;28;20064;-64
2022/03/03 03:42:17;;;;;;;26.00;12.95;;;-2.60;99.90;;;;;;5037127;28;20032;-65
2022/03/03 03:44:44;;;;;;;26.08;11.75;;;-2.60;99.90;;;;;;5036316;28;20049;-65
2022/03/03 03:47:13;;;;;;;20.67;11.63;;;-2.60;99.90;;;;;;5034306;28;20500;-65
2022/03/03 03:49:41;;;;;;;22.45;12.93;;;-2.60;99.90;;;;;;5029317;28;20060;-64
2022/03/03 03:52:08;;;;;;;24.30;12.48;;;-2.70;99.90;;;;;;5029853;28;20068;-64
2022/03/03 03:54:37;;;;;;;24.45;13.15;;;-2.70;99.90;;;;;;5035701;28;20053;-64
2022/03/03 03:57:04;;;;;;;27.45;12.73;;;-2.70;99.90;;;;;;5027728;28;20037;-65
2022/03/03 03:59:31;;;;;;;25.85;13.10;;;-2.80;99.90;;;;;;5027442;28;20048;-64
2022/03/03 04:01:58;;;;;;;24.23;12.45;;;-2.80;99.90;;;;;;5037606;28;20061;-64
2022/03/03 04:04:26;;;;;;;24.92;12.77;;;-2.80;99.90;;;;;;5037521;28;20050;-64
2022/03/03 04:06:53;;;;;;;24.30;13.27;;;-2.80;99.90;;;;;;5034811;28;20401;-64
2022/03/03 04:09:20;;;;;;;24.17;12.45;;;-2.80;99.90;;;;;;5020940;28;20041;-64
2022/03/03 04:11:48;;;;;;;28.25;12.38;;;-2.80;99.90;;;;;;5029304;28;20041;-65
2022/03/03 04:14:16;;;;;;;22.88;12.32;;;-2.80;99.90;;;;;;5039412;28;20037;-64
2022/03/03 04:16:43;;;;;;;24.15;13.15;;;-2.80;99.90;;;;;;5045059;28;20041;-65
2022/03/03 04:19:10;;;;;;;27.35;13.05;;;-2.80;99.90;;;;;;5046898;28;20053;-64
2022/03/03 04:21:37;;;;;;;25.35;13.02;;;-2.80;99.90;;;;;;5043986;28;20273;-64
2022/03/03 04:24:06;;;;;;;25.85;13.07;;;-2.80;99.90;;;;;;5045944;28;20380;-64
2022/03/03 04:26:34;;;;;;;29.05;15.00;;;-2.80;99.90;;;;;;5045389;28;20586;-64
2022/03/03 04:29:01;;;;;;;28.40;14.10;;;-2.80;99.90;;;;;;5038897;28;20041;-66
2022/03/03 04:31:28;;;;;;;29.50;14.52;;;-2.80;99.90;;;;;;5035162;28;20424;-66
2022/03/03 04:33:56;;;;;;;25.50;14.25;;;-2.80;99.90;;;;;;5041990;28;20179;-66
2022/03/03 04:36:24;;;;;;;28.92;13.63;;;-2.90;99.90;;;;;;5046946;28;20547;-66
2022/03/03 04:38:51;;;;;;;25.10;13.30;;;-2.90;99.90;;;;;;5025058;28;20057;-66
2022/03/03 04:41:19;;;;;;;29.52;13.88;;;-2.90;99.90;;;;;;5043168;28;20091;-66
2022/03/03 04:43:48;;;;;;;24.23;12.65;;;-2.80;99.90;;;;;;5047658;28;20427;-66
2022/03/03 04:46:16;;;;;;;28.60;14.25;;;-2.80;99.90;;;;;;5037485;28;20041;-67
2022/03/03 04:48:43;;;;;;;33.72;17.10;;;-2.80;99.90;;;;;;5049619;28;20452;-66
2022/03/03 04:51:11;;;;;;;39.65;17.60;;;-2.80;99.90;;;;;;5041381;28;20038;-65
2022/03/03 04:53:38;;;;;;;37.47;18.27;;;-2.80;99.90;;;;;;5031940;28;20045;-66
2022/03/03 04:56:05;;;;;;;36.22;18.35;;;-2.80;99.90;;;;;;5030207;28;20041;-65
2022/03/03 04:58:33;;;;;;;40.63;19.88;;;-2.80;99.90;;;;;;5039630;28;20140;-64
2022/03/03 05:01:00;;;;;;;46.38;21.75;;;-2.90;99.90;;;;;;5032467;28;20057;-67
2022/03/03 05:03:28;;;;;;;38.17;20.35;;;-2.90;99.90;;;;;;5032109;28;20424;-66
2022/03/03 05:05:55;;;;;;;35.03;18.90;;;-2.90;99.90;;;;;;5032719;28;20041;-66
2022/03/03 05:08:22;;;;;;;38.20;18.88;;;-2.90;99.90;;;;;;5034710;28;20466;-66
2022/03/03 05:10:49;;;;;;;36.85;19.33;;;-2.80;99.90;;;;;;5039733;28;20053;-66
2022/03/03 05:13:16;;;;;;;36.65;17.55;;;-2.80;99.90;;;;;;5045834;28;20056;-66
2022/03/03 05:15:44;;;;;;;35.00;17.27;;;-2.70;99.90;;;;;;5050935;28;20579;-65
2022/03/03 05:18:11;;;;;;;34.50;17.02;;;-2.80;99.90;;;;;;5030993;28;20052;-65
2022/03/03 05:20:39;;;;;;;32.70;18.02;;;-2.80;99.90;;;;;;5031494;28;20053;-66
2022/03/03 05:23:06;;;;;;;45.05;20.70;;;-2.80;99.90;;;;;;5042592;28;20037;-65
2022/03/03 05:25:34;;;;;;;43.80;19.25;;;-2.90;99.90;;;;;;5040124;28;20049;-67
2022/03/03 05:28:01;;;;;;;39.63;18.25;;;-2.90;99.90;;;;;;5043979;28;20400;-66
2022/03/03 05:30:29;;;;;;;28.70;14.45;;;-3.00;99.90;;;;;;5038555;28;20455;-66
2022/03/03 05:32:57;;;;;;;26.48;14.80;;;-3.10;99.90;;;;;;5042342;28;20070;-66
2022/03/03 05:35:25;;;;;;;27.65;13.27;;;-3.10;99.90;;;;;;5042992;28;20040;-66
2022/03/03 05:37:52;;;;;;;24.05;13.18;;;-3.20;99.90;;;;;;5018680;28;20041;-66
2022/03/03 05:40:19;;;;;;;24.30;12.07;;;-3.20;99.90;;;;;;5022912;28;20042;-66
2022/03/03 05:42:46;;;;;;;23.52;12.63;;;-3.30;99.90;;;;;;5032156;28;20045;-66
2022/03/03 05:45:14;;;;;;;25.23;13.13;;;-3.30;99.90;;;;;;5036626;28;20038;-66
2022/03/03 05:47:41;;;;;;;25.83;13.02;;;-3.30;99.90;;;;;;5033144;28;20045;-65
2022/03/03 05:50:09;;;;;;;27.98;13.27;;;-3.30;99.90;;;;;;5023458;28;20082;-66
2022/03/03 05:52:36;;;;;;;27.77;14.07;;;-3.30;99.90;;;;;;5026862;28;20046;-67
2022/03/03 05:55:05;;;;;;;27.48;13.32;;;-3.20;99.90;;;;;;5037680;28;20045;-66
2022/03/03 05:57:38;;;;;;;26.85;13.93;;;-3.20;99.90;;;;;;5029657;28;20045;-66
2022/03/03 06:00:09;;;;;;;30.17;15.52;;;-3.20;99.90;;;;;;5034362;28;20042;-66
2022/03/03 06:02:53;;;;;;;34.67;15.07;;;-3.20;99.90;;;;;;5030996;28;20523;-66
2022/03/03 06:05:24;;;;;;;37.03;15.82;;;-3.10;99.90;;;;;;5039245;28;20080;-67
2022/03/03 06:07:54;;;;;;;29.98;15.88;;;-3.00;99.90;;;;;;5032671;28;20072;-65
2022/03/03 06:10:24;;;;;;;28.33;14.80;;;-2.90;99.90;;;;;;5032418;28;20033;-66
2022/03/03 06:13:07;;;;;;;28.23;14.57;;;-2.80;99.90;;;;;;5038637;28;20045;-66
2022/03/03 06:15:37;;;;;;;29.38;14.82;;;-2.80;99.90;;;;;;5025993;28;20053;-66
2022/03/03 06:18:07;;;;;;;28.08;14.02;;;-2.70;99.90;;;;;;5038649;28;20038;-67
2022/03/03 06:20:37;;;;;;;24.13;13.90;;;-2.60;99.90;;;;;;5031589;28;20099;-65
2022/03/03 06:23:04;;;;;;;26.92;14.40;;;-2.60;99.90;;;;;;5031953;28;20034;-65
2022/03/03 06:25:32;;;;;;;25.88;14.32;;;-2.60;99.90;;;;;;5032731;28;20044;-66
2022/03/03 06:27:59;;;;;;;31.55;13.68;;;-2.60;99.90;;;;;;5035715;28;20114;-65
2022/03/03 06:30:26;;;;;;;24.40;13.18;;;-2.60;99.90;;;;;;5034627;28;20049;-65
2022/03/03 06:32:54;;;;;;;25.75;13.70;;;-2.60;99.90;;;;;;5032130;28;20041;-66
2022/03/03 06:35:21;;;;;;;28.30;13.57;;;-2.50;99.90;;;;;;5030672;28;20435;-65
2022/03/03 06:37:48;;;;;;;26.88;13.52;;;-2.40;99.90;;;;;;5031655;28;20550;-64
2022/03/03 06:40:16;;;;;;;26.80;13.80;;;-2.40;99.90;;;;;;5018416;28;20050;-65
2022/03/03 06:42:43;;;;;;;30.90;13.20;;;-2.40;99.90;;;;;;5042671;28;20056;-65
2022/03/03 06:45:11;;;;;;;22.58;13.10;;;-2.30;99.90;;;;;;5031375;28;20103;-65
2022/03/03 06:47:38;;;;;;;29.95;13.20;;;-2.20;99.90;;;;;;5039439;28;20372;-66
2022/03/03 06:50:06;;;;;;;23.95;12.82;;;-2.20;99.90;;;;;;5034528;28;20037;-65
2022/03/03 06:52:34;;;;;;;27.60;14.23;;;-2.10;99.90;;;;;;5030366;28;20033;-65
2022/03/03 06:55:02;;;;;;;26.70;13.40;;;-2.00;99.90;;;;;;5030127;28;20041;-66
2022/03/03 06:57:30;;;;;;;28.17;13.57;;;-1.90;99.90;;;;;;5030316;28;20076;-65
2022/03/03 07:00:01;;;;;;;24.77;12.35;;;-1.80;99.90;;;;;;5036357;28;20571;-65
2022/03/03 07:02:29;;;;;;;25.35;13.88;;;-1.70;99.90;;;;;;5040257;28;20582;-66
2022/03/03 07:05:00;;;;;;;27.05;13.63;;;-1.70;99.90;;;;;;5043898;28;20114;-65
2022/03/03 07:07:28;;;;;;;24.42;13.63;;;-1.60;99.90;;;;;;5013375;28;20053;-66
2022/03/03 07:09:56;;;;;;;22.77;12.40;;;-1.50;99.90;;;;;;5028057;28;20071;-66
2022/03/03 07:12:26;;;;;;;23.58;12.65;;;-1.50;99.90;;;;;;5020473;28;20459;-65
2022/03/03 07:14:53;;;;;;;26.05;15.05;;;-1.40;99.90;;;;;;5043061;28;20049;-64
2022/03/03 07:17:45;;;;;;;26.50;14.07;;;-1.30;99.90;;;;;;5036655;28;20047;-66
2022/03/03 07:20:40;;;;;;;22.52;12.88;;;-1.20;99.90;;;;;;5028866;28;20527;-66
2022/03/03 07:23:17;;;;;;;22.77;12.93;;;-1.20;99.90;;;;;;5030919;28;20072;-66
2022/03/03 07:25:51;;;;;;;25.55;12.88;;;-1.00;99.90;;;;;;5033677;28;20052;-65
2022/03/03 07:28:20;;;;;;;24.13;12.57;;;-1.00;99.90;;;;;;5036836;28;20076;-67
2022/03/03 07:30:50;;;;;;;23.42;12.63;;;-0.90;99.90;;;;;;5027302;28;20056;-67
2022/03/03 07:33:19;;;;;;;28.00;13.50;;;-0.80;99.90;;;;;;5037034;28;20475;-66
2022/03/03 07:35:49;;;;;;;21.27;12.73;;;-0.70;99.90;;;;;;5029785;28;20401;-66
2022/03/03 07:38:21;;;;;;;27.85;14.10;;;-0.60;99.90;;;;;;5030852;28;20052;-66
2022/03/03 07:40:49;;;;;;;26.27;14.35;;;-0.50;99.90;;;;;;5029065;28;20041;-65
2022/03/03 07:43:18;;;;;;;28.38;14.05;;;-0.40;99.90;;;;;;5031458;28;20531;-65
2022/03/03 07:45:46;;;;;;;23.77;12.25;;;-0.40;99.90;;;;;;5029067;28;20136;-65
2022/03/03 07:48:14;;;;;;;28.92;13.73;;;-0.30;99.90;;;;;;5031669;28;20512;-65
2022/03/03 07:50:42;;;;;;;31.80;15.02;;;-0.20;99.90;;;;;;5031775;28;20037;-65
2022/03/03 07:53:12;;;;;;;28.00;14.82;;;-0.10;99.90;;;;;;5030277;28;20053;-65
2022/03/03 07:55:48;;;;;;;35.85;17.00;;;0.00;99.90;;;;;;5029322;28;20048;-64
2022/03/03 07:58:20;;;;;;;27.95;15.20;;;0.10;99.90;;;;;;5029485;28;20449;-67
2022/03/03 08:00:51;;;;;;;30.13;15.68;;;0.10;99.90;;;;;;5015647;28;20451;-65
2022/03/03 08:03:23;;;;;;;31.13;15.80;;;0.30;99.90;;;;;;5038063;28;20381;-65
2022/03/03 08:05:55;;;;;;;32.37;15.00;;;0.40;99.90;;;;;;5036188;28;20507;-66
2022/03/03 08:08:25;;;;;;;28.30;15.25;;;0.50;99.90;;;;;;5030042;28;20167;-66
2022/03/03 08:10:57;;;;;;;33.40;15.57;;;0.60;99.90;;;;;;5029172;28;20186;-66
2022/03/03 08:13:27;;;;;;;28.45;14.48;;;0.70;99.90;;;;;;5045940;28;20039;-66
2022/03/03 08:15:55;;;;;;;28.95;14.27;;;0.80;99.90;;;;;;5030457;28;20046;-66
2022/03/03 08:18:30;;;;;;;28.35;14.45;;;0.90;99.90;;;;;;5039630;28;20041;-67
2022/03/03 08:21:00;;;;;;;35.15;14.60;;;1.00;99.90;;;;;;5030301;28;20097;-66
2022/03/03 08:23:28;;;;;;;27.40;15.13;;;1.10;99.90;;;;;;5037503;28;20079;-65
2022/03/03 08:25:57;;;;;;;23.88;13.18;;;1.20;99.90;;;;;;5021157;28;20053;-66
2022/03/03 08:28:25;;;;;;;28.75;14.40;;;1.30;99.90;;;;;;5041543;28;20045;-66
2022/03/03 08:31:01;;;;;;;26.67;13.20;;;1.30;99.90;;;;;;5035743;28;20041;-66
2022/03/03 08:33:50;;;;;;;28.40;15.40;;;1.50;99.90;;;;;;5042844;28;20048;-65
2022/03/03 08:36:25;;;;;;;33.30;14.77;;;1.60;99.90;;;;;;5026816;28;20048;-67
2022/03/03 08:38:53;;;;;;;30.40;16.00;;;1.80;99.90;;;;;;5024525;28;20463;-66
2022/03/03 08:41:22;;;;;;;28.42;15.10;;;1.90;99.90;;;;;;5028497;28;20258;-66
2022/03/03 08:43:53;;;;;;;30.70;14.30;;;2.00;99.90;;;;;;5036625;28;20140;-67
2022/03/03 08:46:24;;;;;;;32.72;16.08;;;2.10;99.90;;;;;;5035285;28;20041;-66
2022/03/03 08:48:53;;;;;;;29.17;16.05;;;2.20;99.90;;;;;;5028785;28;20048;-65
2022/03/03 08:51:21;;;;;;;28.33;15.73;;;2.30;99.90;;;;;;5034685;28;20053;-67
2022/03/03 08:53:48;;;;;;;28.67;15.32;;;2.40;99.90;;;;;;5039998;28;20033;-66
2022/03/03 08:56:16;;;;;;;24.98;14.13;;;2.50;99.90;;;;;;5034030;28;20481;-66
2022/03/03 08:58:44;;;;;;;25.00;13.80;;;2.60;99.90;;;;;;5025151;28;20045;-66
2022/03/03 09:01:11;;;;;;;31.33;15.65;;;2.80;99.90;;;;;;5031484;28;20069;-66
2022/03/03 09:03:40;;;;;;;27.10;14.88;;;2.80;99.90;;;;;;5030511;28;20045;-66
2022/03/03 09:06:08;;;;;;;24.95;13.52;;;2.90;99.90;;;;;;5030631;28;20597;-65
2022/03/03 09:08:35;;;;;;;26.00;14.40;;;2.90;99.90;;;;;;5032015;28;20420;-66
2022/03/03 09:11:02;;;;;;;26.98;15.18;;;3.10;99.90;;;;;;5040343;28;20523;-66
2022/03/03 09:13:30;;;;;;;27.55;14.75;;;3.20;99.90;;;;;;5047986;28;21044;-65
2022/03/03 09:15:58;;;;;;;24.23;13.38;;;3.30;99.90;;;;;;5044739;28;20476;-66
2022/03/03 09:18:25;;;;;;;26.48;13.77;;;3.40;99.90;;;;;;5047859;28;20037;-66
2022/03/03 09:20:53;;;;;;;26.70;13.55;;;3.50;99.90;;;;;;5048620;28;20057;-65
2022/03/03 09:23:20;;;;;;;25.70;13.02;;;3.60;99.90;;;;;;5051140;28;20045;-66
2022/03/03 09:25:48;;;;;;;27.45;13.75;;;3.60;99.90;;;;;;5041019;28;20049;-64
2022/03/03 09:28:15;;;;;;;26.05;14.82;;;3.80;99.90;;;;;;5052057;28;20067;-65
2022/03/03 09:30:45;;;;;;;24.80;13.30;;;3.80;99.90;;;;;;5052301;28;20446;-65
2022/03/03 09:33:13;;;;;;;21.98;12.73;;;3.90;99.90;;;;;;5050232;28;20048;-64
2022/03/03 09:35:40;;;;;;;25.60;14.05;;;4.00;99.90;;;;;;5048084;28;20136;-66
2022/03/03 09:38:07;;;;;;;30.80;15.63;;;4.10;99.90;;;;;;5044246;28;20047;-66
2022/03/03 09:40:35;;;;;;;29.27;16.17;;;4.20;99.90;;;;;;5050212;28;20451;-65
2022/03/03 09:43:05;;;;;;;34.40;18.15;;;4.20;99.90;;;;;;5053769;28;20423;-65
2022/03/03 09:45:34;;;;;;;28.33;15.25;;;4.20;99.90;;;;;;5051427;28;20500;-66
2022/03/03 09:48:09;;;;;;;28.63;16.33;;;4.40;99.90;;;;;;5040856;28;20051;-65
2022/03/03 09:50:39;;;;;;;31.27;15.63;;;4.40;99.90;;;;;;5040419;28;20412;-66
2022/03/03 09:53:12;;;;;;;27.73;15.10;;;4.50;99.90;;;;;;5033700;28;20049;-66
2022/03/03 09:55:41;;;;;;;23.65;13.90;;;4.60;99.90;;;;;;5041615;28;20047;-66
2022/03/03 09:58:09;;;;;;;28.17;16.05;;;4.80;99.90;;;;;;5031788;28;20107;-65
2022/03/03 10:00:40;;;;;;;27.73;15.25;;;4.90;99.90;;;;;;5031196;28;20052;-66
2022/03/03 10:03:13;;;;;;;;;;;4.90;99.90;;;;;;5042649;28;20571;-65
2022/03/03 10:05:45;;;;;;;29.00;14.10;;;5.10;99.90;;;;;;5038259;28;19931;-66
2022/03/03 10:08:17;;;;;;;26.02;14.82;;;5.20;99.90;;;;;;5028768;28;20552;-66
2022/03/03 10:10:47;;;;;;;28.85;14.63;;;5.40;99.90;;;;;;5032801;28;20042;-66
2022/03/03 10:13:16;;;;;;;28.02;14.82;;;5.70;99.90;;;;;;5032427;28;20077;-65
2022/03/03 10:15:46;;;;;;;28.67;15.48;;;5.90;99.90;;;;;;5033938;28;20691;-66
2022/03/03 10:18:18;;;;;;;28.92;16.08;;;5.80;99.90;;;;;;5033831;28;20037;-66
2022/03/03 10:20:48;;;;;;;26.48;14.35;;;5.80;99.90;;;;;;5026341;28;20068;-65
2022/03/03 10:23:16;;;;;;;33.13;15.30;;;6.10;99.90;;;;;;5033770;28;20054;-65
2022/03/03 10:25:46;;;;;;;26.25;15.25;;;6.20;99.90;;;;;;5031439;28;20389;-63
2022/03/03 10:28:15;;;;;;;24.50;13.52;;;6.30;99.90;;;;;;5029468;28;20053;-65
2022/03/03 10:31:05;;;;;;;25.63;15.10;;;6.60;99.90;;;;;;5028886;28;20098;-66
2022/03/03 10:33:34;;;;;;;25.65;14.65;;;6.80;99.90;;;;;;5036498;28;20099;-65
2022/03/03 10:36:26;;;;;;;26.58;14.68;;;7.10;99.90;;;;;;5028472;28;20052;-66
2022/03/03 10:38:57;;;;;;;22.92;13.85;;;7.30;99.90;;;;;;5034420;28;20064;-65
2022/03/03 10:41:36;;;;;;;24.65;14.52;;;7.60;99.90;;;;;;5044789;28;20041;-66
2022/03/03 10:44:20;;;;;;;25.42;13.88;;;7.80;99.90;;;;;;5043806;28;20041;-65
2022/03/03 10:47:11;;;;;;;28.13;14.95;;;8.00;99.90;;;;;;5029923;28;20583;-65
2022/03/03 10:49:44;;;;;;;28.48;14.13;;;8.30;99.90;;;;;;5037378;28;20045;-66
2022/03/03 10:52:17;;;;;;;26.58;14.57;;;8.40;99.90;;;;;;5040144;28;20077;-66
2022/03/03 10:54:52;;;;;;;26.17;15.52;;;8.50;99.90;;;;;;5042320;28;20051;-66
2022/03/03 10:57:33;;;;;;;28.20;14.88;;;8.40;99.90;;;;;;5035046;28;20041;-66
2022/03/03 11:00:06;;;;;;;26.10;14.60;;;8.50;99.90;;;;;;5031354;28;20456;-67
2022/03/03 11:02:35;;;;;;;25.65;13.88;;;8.70;99.90;;;;;;5030716;28;20049;-66
2022/03/03 11:05:04;;;;;;;25.35;14.80;;;8.90;99.90;;;;;;5033456;28;20049;-66
2022/03/03 11:07:32;;;;;;;26.58;14.45;;;9.10;99.90;;;;;;5034778;28;20056;-66
2022/03/03 11:09:59;;;;;;;25.17;14.65;;;9.20;99.90;;;;;;5032663;28;20034;-65
2022/03/03 11:12:27;;;;;;;23.17;14.27;;;9.30;99.90;;;;;;5040925;28;20132;-65
2022/03/03 11:14:56;;;;;;;24.02;14.38;;;9.30;99.90;;;;;;5022896;28;20489;-64
2022/03/03 11:17:23;;;;;;;26.98;15.60;;;9.20;99.90;;;;;;5049210;28;20041;-66
2022/03/03 11:19:52;;;;;;;25.48;14.52;;;9.20;99.90;;;;;;5034795;28;20104;-65
2022/03/03 11:22:21;;;;;;;26.90;16.42;;;9.10;99.90;;;;;;5046452;28;20065;-64
2022/03/03 11:24:50;;;;;;;34.03;16.05;;;9.10;99.90;;;;;;5048979;28;20136;-64
2022/03/03 11:27:17;;;;;;;26.27;15.45;;;9.30;99.90;;;;;;5046779;28;20045;-64
2022/03/03 11:30:11;;;;;;;30.50;16.27;;;9.60;99.90;;;;;;5038608;28;20522;-66
2022/03/03 11:32:39;;;;;;;25.25;15.75;;;9.80;99.90;;;;;;5039734;28;20496;-65
2022/03/03 11:35:11;;;;;;;27.80;15.40;;;10.10;99.30;;;;;;5031496;28;20434;-66
2022/03/03 11:37:43;;;;;;;25.38;15.57;;;10.20;98.50;;;;;;5023588;28;20046;-65
2022/03/03 11:40:17;;;;;;;26.80;15.73;;;10.40;97.50;;;;;;5024668;28;20094;-65
2022/03/03 11:42:53;;;;;;;25.05;14.60;;;10.50;97.10;;;;;;5032885;28;20083;-66
2022/03/03 11:45:31;;;;;;;25.08;13.35;;;10.90;96.50;;;;;;5046138;28;20045;-66
2022/03/03 11:48:15;;;;;;;23.95;12.90;;;11.10;94.90;;;;;;5034523;28;20053;-64
2022/03/03 11:50:43;;;;;;;23.67;13.82;;;11.60;92.30;;;;;;5044452;28;20051;-64
2022/03/03 11:53:11;;;;;;;20.05;12.32;;;11.80;90.50;;;;;;5043686;28;20044;-66
2022/03/03 11:55:43;;;;;;;20.55;11.70;;;12.00;89.80;;;;;;5038563;28;20042;-66
2022/03/03 11:58:18;;;;;;;20.75;11.55;;;12.40;87.70;;;;;;5046079;28;20625;-66
2022/03/03 12:00:57;;;;;;;20.98;11.68;;;12.60;84.30;;;;;;5030200;28;20057;-65
2022/03/03 12:03:26;;;;;;;22.17;11.73;;;13.00;84.00;;;;;;5028082;28;20128;-66
2022/03/03 12:06:03;;;;;;;17.08;11.10;;;13.70;82.90;;;;;;5029033;28;20508;-64
2022/03/03 12:08:36;;;;;;;15.95;11.27;;;14.20;78.80;;;;;;5028516;28;20056;-66
2022/03/03 12:11:07;;;;;;;18.40;10.88;;;14.50;74.00;;;;;;5031187;28;20388;-65
2022/03/03 12:13:41;;;;;;;18.60;11.18;;;14.30;71.40;;;;;;5021397;28;20049;-66
2022/03/03 12:16:29;;;;;;;16.77;10.38;;;14.10;69.80;;;;;;5020809;28;20041;-66
2022/03/03 12:18:56;;;;;;;15.77;10.40;;;14.00;69.10;;;;;;5043939;28;20515;-66
2022/03/03 12:21:35;;;;;;;17.75;11.10;;;14.20;69.50;;;;;;5047390;28;20041;-65
2022/03/03 12:24:17;;;;;;;15.48;9.82;;;14.20;67.70;;;;;;5033756;28;20574;-64
2022/03/03 12:26:59;;;;;;;;;;;14.00;67.70;;;;;;5046571;28;20041;-64
2022/03/03 12:29:37;;;;;;;13.60;9.73;;;13.90;66.70;;;;;;5028256;28;19943;-65
2022/03/03 12:32:25;;;;;;;18.65;10.50;;;13.70;66.70;;;;;;5033015;28;20048;-66
2022/03/03 12:35:16;;;;;;;14.70;9.77;;;13.80;65.80;;;;;;5045973;28;20036;-65
2022/03/03 12:37:45;;;;;;;18.75;10.38;;;13.70;65.40;;;;;;5021534;28;20288;-65
2022/03/03 12:40:20;;;;;;;15.02;10.00;;;14.20;65.40;;;;;;5035254;28;20037;-65
2022/03/03 12:42:48;;;;;;;15.77;10.88;;;14.30;64.80;;;;;;5035094;28;20489;-65